Clifden, Ireland
Current Conditions -  °F | °C
As of 1:00 PM on Saturday 25 Oct 2014 (Local Time) from EIKN Reporting Station
Broken Clouds Broken Clouds  
Wind Chill: 52°   Ceiling: 2800
Heat Index: 52°   Visibility: 6mi
Dew Point: 45°   Wind: 16mph
Humidity: 76%   Direction: 230°SW
Pressure: 29.77"   Gusts: NA
Location:  53.49°N, 10.03°W
Report Text: EIKN 251300Z 23014KT 190V260 9999 FEW008 BKN028 BKN047 11/07 Q1008 NOSIG
Loading
Personal Weather Stations






























Interactive Weather Map
Tropical Storm Tracking
New forecast layout! Learn more

10-Day Weather Forecast

Advertisements
Track Severe Weather on mobile